createdAt,value
2019-01-11T00:07:14.378Z,5.73
2019-01-11T00:12:16.445Z,7.30
2019-01-11T00:17:18.807Z,6.30
2019-01-11T00:19:47.178Z,5.87
2019-01-11T00:22:15.578Z,6.00
2019-01-11T00:24:43.981Z,6.60
2019-01-11T00:27:12.421Z,6.37
2019-01-11T00:29:40.827Z,6.07
2019-01-11T00:32:09.228Z,6.20
2019-01-11T00:37:12.135Z,6.73
2019-01-11T00:39:40.563Z,10.17
2019-01-11T00:42:08.957Z,8.30
2019-01-11T00:44:37.360Z,7.90
2019-01-11T00:47:45.808Z,8.20
2019-01-11T00:50:33.467Z,8.17
2019-01-11T00:53:01.896Z,7.90
2019-01-11T00:55:30.295Z,6.87
2019-01-11T00:57:58.693Z,6.53
2019-01-11T01:00:27.175Z,6.27
2019-01-11T01:02:55.573Z,7.10
2019-01-11T01:05:23.991Z,6.67
2019-01-11T01:08:11.743Z,6.83
2019-01-11T01:11:20.091Z,7.03
2019-01-11T01:13:48.517Z,7.03
2019-01-11T01:16:16.990Z,6.40
2019-01-11T01:18:45.415Z,6.30
2019-01-11T01:21:33.080Z,6.10
2019-01-11T01:24:01.541Z,6.77
2019-01-11T01:26:29.940Z,6.07
2019-01-11T01:28:58.378Z,6.60
2019-01-11T01:31:26.862Z,6.30
2019-01-11T01:33:55.263Z,6.33
2019-01-11T01:36:23.759Z,6.17
2019-01-11T01:38:52.153Z,6.40
2019-01-11T01:41:20.552Z,6.00
2019-01-11T01:43:48.964Z,6.10
2019-01-11T01:46:17.364Z,5.93
2019-01-11T01:48:45.786Z,6.17
2019-01-11T01:53:47.880Z,5.67
2019-01-11T01:56:16.344Z,5.60
2019-01-11T02:01:18.720Z,6.70
2019-01-11T02:04:06.418Z,6.37
2019-01-11T02:06:34.812Z,6.47
2019-01-11T02:09:34.398Z,6.33
2019-01-11T02:11:52.764Z,6.00
2019-01-11T02:20:33.063Z,5.60
2019-01-11T02:26:28.981Z,4.33
2019-01-11T02:28:57.370Z,4.90
2019-01-11T02:39:48.876Z,4.23
2019-01-11T02:42:17.348Z,4.00
2019-01-11T02:44:45.746Z,4.47
2019-01-11T02:47:14.170Z,4.97
2019-01-11T02:55:26.007Z,3.90
2019-01-11T02:57:54.412Z,3.80
2019-01-11T03:00:22.802Z,3.50
2019-01-11T03:06:05.073Z,4.20
2019-01-11T03:08:33.521Z,4.13
2019-01-11T03:11:01.918Z,3.83
2019-01-11T03:16:17.848Z,3.30
2019-01-11T03:24:09.637Z,4.00
2019-01-11T03:29:11.978Z,3.50
2019-01-11T03:31:40.474Z,3.70
2019-01-11T03:34:08.867Z,3.07
2019-01-11T03:36:37.258Z,3.50
2019-01-11T03:39:45.769Z,3.57
2019-01-11T03:42:33.491Z,3.67
2019-01-11T03:47:35.937Z,3.53
2019-01-11T03:50:44.369Z,4.10
2019-01-11T03:53:12.762Z,3.67
2019-01-11T03:55:41.154Z,4.03
2019-01-11T03:58:49.535Z,3.70
2019-01-11T04:01:17.931Z,4.40
2019-01-11T04:03:46.323Z,3.93
2019-01-11T04:06:34.153Z,4.80
2019-01-11T04:11:51.641Z,3.63
2019-01-11T04:14:20.043Z,4.87
2019-01-11T04:16:48.511Z,4.70
2019-01-11T04:27:17.120Z,4.33
2019-01-11T04:29:35.529Z,4.43
2019-01-11T04:32:03.989Z,6.53
2019-01-11T04:34:32.540Z,4.17
2019-01-11T04:37:00.939Z,3.87
2019-01-11T04:39:29.333Z,4.03
2019-01-11T04:41:57.757Z,3.67
2019-01-11T04:44:26.159Z,4.37
2019-01-11T04:46:54.554Z,4.10
2019-01-11T04:51:56.857Z,3.90
2019-01-11T04:54:25.250Z,3.70
2019-01-11T04:56:53.670Z,3.83
2019-01-11T04:59:22.086Z,3.90
2019-01-11T05:01:50.550Z,3.70
2019-01-11T05:04:19.089Z,3.90
2019-01-11T05:07:06.738Z,3.63
2019-01-11T05:09:35.173Z,4.03
2019-01-11T05:12:03.575Z,3.67
2019-01-11T05:14:31.973Z,3.67
2019-01-11T05:19:34.329Z,3.57
2019-01-11T05:24:36.748Z,4.40
2019-01-11T05:27:05.146Z,4.00
2019-01-11T05:29:52.884Z,3.90
2019-01-11T05:32:21.278Z,5.40
2019-01-11T05:34:49.683Z,4.40
2019-01-11T05:37:18.246Z,4.83
2019-01-11T05:39:46.649Z,4.17
2019-01-11T05:42:15.043Z,4.17
2019-01-11T05:44:43.492Z,3.33
2019-01-11T05:47:11.884Z,4.07
2019-01-11T05:49:40.282Z,3.73
2019-01-11T05:52:08.860Z,4.10
2019-01-11T05:54:37.254Z,5.20
2019-01-11T05:57:05.659Z,5.63
2019-01-11T05:59:34.078Z,4.10
2019-01-11T06:02:02.478Z,5.10
2019-01-11T06:04:50.042Z,5.20
2019-01-11T06:07:37.634Z,4.40
2019-01-11T06:10:45.987Z,5.53
2019-01-11T06:13:14.385Z,4.43
2019-01-11T06:15:42.791Z,5.00
2019-01-11T06:20:45.664Z,3.77
2019-01-11T06:25:48.097Z,3.97
2019-01-11T06:28:16.555Z,5.60
2019-01-11T06:30:44.966Z,8.27
2019-01-11T06:33:13.438Z,6.57
2019-01-11T06:35:41.861Z,6.33
2019-01-11T06:38:10.253Z,5.50
2019-01-11T06:40:38.648Z,5.90
2019-01-11T06:43:07.222Z,6.43
2019-01-11T06:45:35.611Z,5.70
2019-01-11T06:50:36.450Z,5.43
2019-01-11T06:53:02.973Z,6.07
2019-01-11T06:55:31.366Z,6.50
2019-01-11T06:57:59.840Z,6.30
2019-01-11T07:00:28.261Z,6.20
2019-01-11T07:02:56.664Z,5.90
2019-01-11T07:05:25.087Z,6.27
2019-01-11T07:07:53.499Z,6.23
2019-01-11T07:11:01.870Z,6.73
2019-01-11T07:13:30.260Z,5.53
2019-01-11T07:15:58.725Z,5.33
2019-01-11T07:21:00.628Z,5.70
2019-01-11T07:23:29.023Z,5.57
2019-01-11T07:25:57.433Z,5.63
2019-01-11T07:28:25.835Z,6.57
2019-01-11T07:31:13.398Z,5.63
2019-01-11T07:33:41.855Z,7.93
2019-01-11T07:36:29.484Z,8.40
2019-01-11T07:38:57.931Z,11.83
2019-01-11T07:41:26.372Z,13.33
2019-01-11T07:43:54.791Z,9.07
2019-01-11T07:46:23.344Z,7.67
2019-01-11T07:48:51.746Z,6.77
2019-01-11T07:51:20.159Z,7.17
2019-01-11T07:53:48.556Z,16.73
2019-01-11T07:56:16.953Z,7.90
2019-01-11T07:58:45.388Z,8.20
2019-01-11T08:01:13.848Z,5.87
2019-01-11T08:03:42.259Z,5.83
2019-01-11T08:06:10.759Z,5.80
2019-01-11T08:08:40.074Z,6.20
2019-01-11T08:11:08.538Z,6.27
2019-01-11T08:13:36.963Z,6.10
2019-01-11T08:16:05.430Z,5.77
2019-01-11T08:18:33.895Z,5.60
2019-01-11T08:21:02.330Z,5.93
2019-01-11T08:23:30.812Z,5.63
2019-01-11T08:25:59.222Z,5.40
2019-01-11T08:31:06.642Z,6.33
2019-01-11T08:33:35.116Z,9.80
2019-01-11T08:38:58.187Z,6.87
2019-01-11T08:41:26.598Z,7.73
2019-01-11T08:43:54.997Z,6.40
2019-01-11T08:46:23.506Z,6.67
2019-01-11T08:48:52.002Z,57.77
2019-01-11T08:51:20.563Z,66.20
2019-01-11T08:53:48.988Z,23.17
2019-01-11T08:56:17.463Z,13.27
2019-01-11T09:01:34.974Z,13.10
2019-01-11T09:04:03.377Z,12.23
2019-01-11T09:09:26.604Z,14.50
2019-01-11T09:11:55.003Z,13.17
2019-01-11T09:17:12.571Z,10.03
2019-01-11T09:19:40.960Z,9.93
2019-01-11T09:22:09.361Z,7.33
2019-01-11T09:27:11.789Z,9.70
2019-01-11T09:29:40.260Z,7.43
2019-01-11T09:34:42.828Z,7.70
2019-01-11T09:37:11.227Z,7.50
2019-01-11T09:39:39.655Z,12.47
2019-01-11T09:42:08.155Z,6.47
2019-01-11T09:44:36.550Z,18.93
2019-01-11T09:47:44.915Z,11.30
2019-01-11T09:50:13.459Z,7.67
2019-01-11T09:52:41.923Z,7.80
2019-01-11T09:58:04.857Z,7.17
2019-01-11T10:00:33.397Z,8.27
2019-01-11T10:05:50.976Z,9.87
2019-01-11T10:08:19.376Z,10.23
2019-01-11T10:10:47.779Z,7.67
2019-01-11T10:13:16.276Z,6.07
2019-01-11T10:15:44.681Z,5.80
2019-01-11T10:18:13.083Z,5.50
2019-01-11T10:20:41.503Z,6.40
2019-01-11T10:23:09.903Z,5.27
2019-01-11T10:25:38.297Z,5.07
2019-01-11T10:28:06.799Z,4.97
2019-01-11T10:30:35.196Z,4.97
2019-01-11T10:33:03.660Z,5.00
2019-01-11T10:35:32.074Z,4.87
2019-01-11T10:38:00.465Z,3.60
2019-01-11T10:40:28.933Z,3.80
2019-01-11T10:45:31.841Z,3.80
2019-01-11T10:48:00.404Z,3.73
2019-01-11T10:50:28.801Z,4.27
2019-01-11T10:52:57.368Z,3.43
2019-01-11T10:55:25.777Z,3.60
2019-01-11T10:57:54.239Z,4.10
2019-01-11T11:01:02.677Z,4.37
2019-01-11T11:03:31.109Z,4.23
2019-01-11T11:05:59.627Z,4.10
2019-01-11T11:08:28.079Z,7.80
2019-01-11T11:10:56.469Z,4.57
2019-01-11T11:13:24.873Z,4.33
2019-01-11T11:21:02.908Z,4.30
2019-01-11T11:23:31.413Z,5.07
2019-01-11T11:25:59.820Z,5.67
2019-01-11T11:28:28.210Z,4.20
2019-01-11T11:33:32.369Z,4.60
2019-01-11T11:36:00.769Z,7.83
2019-01-11T11:38:29.165Z,7.00
2019-01-11T11:43:31.508Z,6.77
2019-01-11T11:45:59.913Z,6.50
2019-01-11T11:48:28.327Z,4.17
2019-01-11T11:50:56.832Z,4.57
2019-01-11T11:53:25.298Z,4.60
2019-01-11T11:55:53.709Z,4.30
2019-01-11T11:58:22.117Z,4.50
2019-01-11T12:00:50.510Z,3.70
2019-01-11T12:03:18.905Z,3.90
2019-01-11T12:05:47.405Z,3.50
2019-01-11T12:08:15.868Z,4.13
2019-01-11T12:10:44.267Z,3.83
2019-01-11T12:13:12.710Z,4.10
2019-01-11T12:15:41.101Z,3.93
2019-01-11T12:18:09.497Z,4.13
2019-01-11T12:23:32.532Z,3.80
2019-01-11T12:28:50.103Z,3.10
2019-01-11T12:31:18.497Z,3.27
2019-01-11T12:33:46.890Z,3.27
2019-01-11T12:36:15.376Z,3.60
2019-01-11T12:38:43.837Z,3.53
2019-01-11T12:41:12.230Z,3.60
2019-01-11T12:43:40.646Z,3.53
2019-01-11T12:46:09.036Z,4.23
2019-01-11T12:48:37.427Z,3.60
2019-01-11T12:51:05.999Z,3.73
2019-01-11T12:53:34.383Z,4.03
2019-01-11T12:56:02.789Z,4.00
2019-01-11T13:01:45.483Z,3.73
2019-01-11T13:04:14.010Z,4.10
2019-01-11T13:06:42.401Z,4.07
2019-01-11T13:09:30.139Z,4.13
2019-01-11T13:11:58.531Z,4.00
2019-01-11T13:14:26.923Z,3.80
2019-01-11T13:19:29.052Z,3.87
2019-01-11T13:22:00.694Z,4.17
2019-01-11T13:24:27.583Z,4.53
2019-01-11T13:26:55.979Z,3.83
2019-01-11T13:29:24.400Z,4.27
2019-01-11T13:31:52.787Z,4.47
2019-01-11T13:34:21.184Z,4.50
2019-01-11T13:36:53.927Z,4.73
2019-01-11T13:39:19.792Z,38.60
2019-01-11T13:42:07.509Z,23.97
2019-01-11T13:44:35.915Z,29.40
2019-01-11T13:49:59.323Z,3.80
2019-01-11T13:52:27.720Z,4.33
2019-01-11T13:54:56.107Z,4.33
2019-01-11T13:57:24.539Z,5.43
2019-01-11T13:59:52.937Z,4.30
2019-01-11T14:07:49.989Z,6.00
2019-01-11T14:10:18.436Z,5.20
2019-01-11T14:12:46.829Z,3.90
2019-01-11T14:15:22.665Z,3.87
2019-01-11T14:18:10.416Z,3.80
2019-01-11T14:20:38.806Z,3.70
2019-01-11T14:23:07.343Z,4.60
2019-01-11T14:25:35.771Z,4.70
2019-01-11T14:28:44.117Z,4.63
2019-01-11T14:31:12.565Z,4.43
2019-01-11T14:33:40.959Z,4.73
2019-01-11T14:36:09.445Z,5.40
2019-01-11T14:38:37.868Z,4.80
2019-01-11T14:41:06.258Z,4.50
2019-01-11T14:43:34.642Z,5.70
2019-01-11T14:46:03.152Z,6.53
2019-01-11T14:48:31.560Z,5.47
2019-01-11T14:50:59.956Z,6.50
2019-01-11T14:53:28.395Z,5.63
2019-01-11T14:55:56.826Z,11.20
2019-01-11T14:58:28.682Z,5.57
2019-01-11T15:00:55.386Z,6.90
2019-01-11T15:03:23.786Z,5.33
2019-01-11T15:05:52.193Z,7.07
2019-01-11T15:10:54.841Z,5.80
2019-01-11T15:13:23.226Z,5.53
2019-01-11T15:15:51.673Z,6.00
2019-01-11T15:18:20.065Z,6.70
2019-01-11T15:20:48.466Z,6.80
2019-01-11T15:25:51.075Z,6.50
2019-01-11T15:28:19.623Z,6.77
2019-01-11T15:30:48.200Z,7.60
2019-01-11T15:33:16.589Z,7.43
2019-01-11T15:35:45.013Z,8.30
2019-01-11T15:38:13.481Z,8.07
2019-01-11T15:40:41.948Z,8.60
2019-01-11T15:43:10.370Z,9.13
2019-01-11T15:45:38.769Z,10.37
2019-01-11T15:48:26.498Z,10.53
2019-01-11T15:51:14.229Z,24.13
2019-01-11T15:53:42.701Z,11.00
2019-01-11T15:56:11.215Z,40.43
2019-01-11T15:58:39.753Z,32.07
2019-01-11T16:01:08.289Z,13.10
2019-01-11T16:03:36.642Z,9.80
2019-01-11T16:06:45.086Z,12.03
2019-01-11T16:09:53.418Z,10.37
2019-01-11T16:15:34.286Z,8.83
2019-01-11T16:18:42.641Z,9.80
2019-01-11T16:21:23.793Z,11.77
2019-01-11T16:23:52.311Z,12.10
2019-01-11T16:26:20.942Z,11.67
2019-01-11T16:28:49.352Z,10.53
2019-01-11T16:31:17.903Z,10.63
2019-01-11T16:33:46.297Z,10.10
2019-01-11T16:36:14.700Z,10.17
2019-01-11T16:38:43.127Z,10.17
2019-01-11T16:41:11.543Z,10.60
2019-01-11T16:43:39.950Z,10.73
2019-01-11T16:46:08.447Z,10.00
2019-01-11T16:48:36.885Z,10.77
2019-01-11T16:51:05.684Z,12.43
2019-01-11T16:53:35.553Z,12.77
2019-01-11T16:59:12.098Z,9.50
2019-01-11T17:01:40.447Z,9.80
2019-01-11T17:04:08.853Z,10.50
2019-01-11T17:06:37.360Z,11.10
2019-01-11T17:09:45.672Z,9.50
2019-01-11T17:12:14.191Z,9.93
2019-01-11T17:14:42.597Z,10.03
2019-01-11T17:17:10.995Z,10.00
2019-01-11T17:19:39.464Z,8.90
2019-01-11T17:22:07.865Z,9.73
2019-01-11T17:24:36.279Z,10.03
2019-01-11T17:27:04.885Z,10.30
2019-01-11T17:29:33.278Z,9.63
2019-01-11T17:32:01.697Z,10.10
2019-01-11T17:34:30.207Z,9.20
2019-01-11T17:37:17.947Z,9.50
2019-01-11T17:39:46.449Z,9.47
2019-01-11T17:42:14.811Z,9.13
2019-01-11T17:44:43.211Z,9.03
2019-01-11T17:49:45.896Z,8.97
2019-01-11T17:52:14.323Z,8.87
2019-01-11T17:54:42.719Z,8.70
2019-01-11T17:57:11.137Z,8.77
2019-01-11T17:59:39.574Z,9.03
2019-01-11T18:02:07.975Z,9.20
2019-01-11T18:04:36.386Z,9.07
2019-01-11T18:07:05.137Z,8.90
2019-01-11T18:09:33.540Z,8.37
2019-01-11T18:12:01.939Z,8.50
2019-01-11T18:14:30.371Z,8.30
2019-01-11T18:16:58.851Z,8.87
2019-01-11T18:19:27.261Z,8.00
2019-01-11T18:21:55.689Z,9.43
2019-01-11T18:24:24.110Z,11.23
2019-01-11T18:26:52.519Z,11.37
2019-01-11T18:29:20.951Z,9.80
2019-01-11T18:31:49.351Z,9.30
2019-01-11T18:34:17.744Z,8.53
2019-01-11T18:36:46.181Z,8.60
2019-01-11T18:39:14.580Z,10.87
2019-01-11T18:41:42.985Z,12.80
2019-01-11T18:44:51.390Z,16.10
2019-01-11T18:47:19.799Z,12.73
2019-01-11T18:49:49.249Z,14.20
2019-01-11T18:52:18.836Z,10.73
2019-01-11T18:54:47.243Z,9.40
2019-01-11T18:57:15.678Z,24.60
2019-01-11T19:02:17.957Z,8.40
2019-01-11T19:04:46.435Z,9.87
2019-01-11T19:07:16.526Z,8.10
2019-01-11T19:15:53.606Z,8.70
2019-01-11T19:18:22.121Z,9.13
2019-01-11T19:20:50.592Z,8.43
2019-01-11T19:23:20.561Z,8.90
2019-01-11T19:25:49.182Z,8.53
2019-01-11T19:28:17.601Z,8.80
2019-01-11T19:30:46.006Z,8.10
2019-01-11T19:33:14.523Z,8.77
2019-01-11T19:35:43.093Z,7.80
2019-01-11T19:38:11.501Z,7.77
2019-01-11T19:40:39.992Z,8.20
2019-01-11T19:43:08.412Z,8.23
2019-01-11T19:45:36.810Z,7.90
2019-01-11T19:48:05.343Z,8.53
2019-01-11T19:50:33.696Z,7.30
2019-01-11T19:53:02.163Z,6.70
2019-01-11T19:58:24.846Z,6.73
2019-01-11T20:00:53.290Z,7.10
2019-01-11T20:03:21.783Z,6.83
2019-01-11T20:05:50.395Z,10.03
2019-01-11T20:08:58.714Z,16.03
2019-01-11T20:11:27.156Z,6.50
2019-01-11T20:13:55.552Z,6.70
2019-01-11T20:16:23.956Z,6.33
2019-01-11T20:18:52.391Z,6.10
2019-01-11T20:21:20.789Z,6.10
2019-01-11T20:23:49.190Z,6.67
2019-01-11T20:26:17.613Z,6.43
2019-01-11T20:28:46.012Z,6.03
2019-01-11T20:31:14.415Z,6.00
2019-01-11T20:33:42.830Z,6.27
2019-01-11T20:36:11.235Z,6.27
2019-01-11T20:38:39.633Z,5.90
2019-01-11T20:41:08.073Z,6.10
2019-01-11T20:43:37.522Z,6.03
2019-01-11T20:46:06.725Z,5.37
2019-01-11T20:48:35.225Z,5.00
2019-01-11T20:51:03.693Z,5.37
2019-01-11T20:53:32.164Z,5.40
2019-01-11T20:56:00.601Z,5.00
2019-01-11T20:58:28.989Z,5.00
2019-01-11T21:00:57.381Z,4.83
2019-01-11T21:03:25.818Z,5.33
2019-01-11T21:05:54.287Z,4.10
2019-01-11T21:08:22.691Z,3.90
2019-01-11T21:10:51.160Z,4.97
2019-01-11T21:13:19.574Z,4.20
2019-01-11T21:15:47.977Z,4.20
2019-01-11T21:18:16.454Z,4.77
2019-01-11T21:20:44.881Z,4.03
2019-01-11T21:23:13.317Z,4.50
2019-01-11T21:28:15.881Z,4.20
2019-01-11T21:30:44.281Z,4.63
2019-01-11T21:35:47.133Z,4.07
2019-01-11T21:38:15.634Z,4.30
2019-01-11T21:40:44.030Z,4.60
2019-01-11T21:43:12.429Z,4.30
2019-01-11T21:45:40.953Z,4.27
2019-01-11T21:48:09.432Z,3.90
2019-01-11T21:50:37.902Z,3.63
2019-01-11T21:53:46.250Z,3.77
2019-01-11T21:56:14.645Z,3.63
2019-01-11T21:58:43.048Z,3.97
2019-01-11T22:01:11.466Z,4.17
2019-01-11T22:03:39.867Z,4.13
2019-01-11T22:06:08.269Z,4.00
2019-01-11T22:08:36.759Z,4.20
2019-01-11T22:11:05.247Z,3.60
2019-01-11T22:13:33.641Z,4.63
2019-01-11T22:18:56.601Z,4.00
2019-01-11T22:21:24.997Z,4.10
2019-01-11T22:23:53.399Z,3.80
2019-01-11T22:26:21.852Z,3.87
2019-01-11T22:28:50.245Z,3.87
2019-01-11T22:31:18.645Z,3.83
2019-01-11T22:33:47.127Z,4.00
2019-01-11T22:36:15.603Z,4.17
2019-01-11T22:38:43.994Z,4.40
2019-01-11T22:41:12.425Z,3.67
2019-01-11T22:43:40.826Z,4.20
2019-01-11T22:46:09.221Z,3.77
2019-01-11T22:48:37.644Z,3.50
2019-01-11T22:51:06.044Z,3.90
2019-01-11T22:53:34.440Z,4.10
2019-01-11T22:56:02.862Z,3.40
2019-01-11T22:58:31.261Z,3.67
2019-01-11T23:01:39.694Z,3.73
2019-01-11T23:04:08.100Z,3.53
2019-01-11T23:07:15.173Z,3.47
2019-01-11T23:10:23.493Z,3.97
2019-01-11T23:13:31.911Z,3.70
2019-01-11T23:16:40.265Z,3.47
2019-01-11T23:21:43.248Z,3.80
2019-01-11T23:24:17.315Z,3.80
2019-01-11T23:26:41.875Z,3.63
2019-01-11T23:29:10.270Z,3.60
2019-01-11T23:31:38.764Z,3.27
2019-01-11T23:34:07.181Z,3.80
2019-01-11T23:36:35.577Z,3.63
2019-01-11T23:44:32.336Z,4.37
2019-01-11T23:47:00.839Z,3.77
2019-01-11T23:49:29.229Z,3.80
2019-01-11T23:51:57.702Z,4.03
2019-01-11T23:54:26.134Z,4.10
2019-01-11T23:56:54.597Z,3.73
2019-01-11T23:59:22.998Z,3.70
